< Typhoon 197504 1975 Season Typhoon 197506 >
Typhoon 197505 (PHYLLIS)
General InformationTrack Information on Google Maps || NewsDisaster Info.ResourceGoogle EarthGE AnimationAtom FeedGeoJSON
Detalied Best Track (Time Zone = UTC)
Year Month Day Hour Lat. Long. Pressure (hPa) Wind (kt) Class Image Chart
1975 8 12 00 12.7 137.9 996 0 2 -- Chart
1975 8 12 06 13.0 137.4 996 0 9 -- Chart
1975 8 12 12 13.4 137.2 992 0 9 -- Chart
1975 8 12 18 13.7 136.8 990 0 9 -- Chart
1975 8 13 00 13.9 136.6 985 0 9 -- Chart
1975 8 13 06 14.7 136.6 975 0 9 -- Chart
1975 8 13 12 15.8 136.7 970 0 9 -- Chart
1975 8 13 18 17.1 136.8 955 0 9 -- Chart
1975 8 14 00 18.8 137.0 950 0 9 -- Chart
1975 8 14 06 20.5 137.0 940 0 9 -- Chart
1975 8 14 12 22.2 137.0 925 0 9 -- Chart
1975 8 14 18 24.1 137.0 920 0 9 -- Chart
1975 8 15 00 25.7 137.0 930 0 9 -- Chart
1975 8 15 06 27.3 136.7 935 0 9 -- Chart
1975 8 15 12 28.5 135.7 935 0 9 -- Chart
1975 8 15 18 29.1 135.0 940 0 9 -- Chart
1975 8 16 00 29.5 134.4 945 0 9 -- Chart
1975 8 16 06 30.1 134.1 945 0 9 -- Chart
1975 8 16 12 31.0 133.8 950 0 9 -- Chart
1975 8 16 18 31.7 133.1 955 0 9 -- Chart
1975 8 17 00 32.8 132.7 960 0 9 -- Chart
1975 8 17 06 34.0 131.8 980 0 9 -- Chart
1975 8 17 12 34.8 131.0 985 0 9 -- Chart
1975 8 17 18 35.7 130.4 990 0 9 -- Chart
1975 8 18 00 36.5 130.0 998 0 2 -- Chart
1975 8 18 06 37.4 130.0 998 0 2 -- Chart
1975 8 18 12 38.0 130.3 1000 0 2 -- Chart
1975 8 18 18 39.5 130.4 1000 0 2 -- Chart
1975 8 19 00 41.0 132.0 1002 0 6 -- Chart
1975 8 19 06 41.3 134.0 1004 0 6 -- Chart
1975 8 19 12 41.5 135.7 1004 0 6 -- Chart
1975 8 19 18 42.0 139.0 1002 0 6 -- Chart
1975 8 20 00 42.0 141.5 1004 0 6 -- Chart
Japan Meteorological Agency Best Track Data | Correction Date : 2013-03-19
< Typhoon 197504 1975 Season Typhoon 197506 >

Help